sensor_id;sensor_type;location;lat;lon;timestamp;temperature;humidity
6930;DHT22;3504;52.616;13.238;2023-07-09T00:02:17;18.72;60.18
6930;DHT22;3504;52.616;13.238;2023-07-09T00:07:27;18.65;60.32
6930;DHT22;3504;52.616;13.238;2023-07-09T00:12:28;18.58;61.52
6930;DHT22;3504;52.616;13.238;2023-07-09T00:17:32;18.53;60.53
6930;DHT22;3504;52.616;13.238;2023-07-09T00:22:37;18.48;61.51
6930;DHT22;3504;52.616;13.238;2023-07-09T00:27:38;18.37;60.76
6930;DHT22;3504;52.616;13.238;2023-07-09T00:32:38;18.30;60.87
6930;DHT22;3504;52.616;13.238;2023-07-09T00:37:45;18.28;61.33
6930;DHT22;3504;52.616;13.238;2023-07-09T00:42:53;18.18;62.15
6930;DHT22;3504;52.616;13.238;2023-07-09T00:47:57;18.13;61.50
6930;DHT22;3504;52.616;13.238;2023-07-09T00:53:22;18.07;61.52
6930;DHT22;3504;52.616;13.238;2023-07-09T00:58:24;18.02;61.09
6930;DHT22;3504;52.616;13.238;2023-07-09T01:03:45;17.95;61.37
6930;DHT22;3504;52.616;13.238;2023-07-09T01:08:46;17.90;62.06
6930;DHT22;3504;52.616;13.238;2023-07-09T01:14:01;17.82;64.12
6930;DHT22;3504;52.616;13.238;2023-07-09T01:19:07;17.65;65.22
6930;DHT22;3504;52.616;13.238;2023-07-09T01:24:13;17.56;64.56
6930;DHT22;3504;52.616;13.238;2023-07-09T01:29:14;17.49;65.17
6930;DHT22;3504;52.616;13.238;2023-07-09T01:34:15;17.45;64.78
6930;DHT22;3504;52.616;13.238;2023-07-09T01:39:15;17.42;64.82
6930;DHT22;3504;52.616;13.238;2023-07-09T01:44:16;17.34;64.63
6930;DHT22;3504;52.616;13.238;2023-07-09T01:49:16;17.32;65.72
6930;DHT22;3504;52.616;13.238;2023-07-09T01:54:17;17.21;65.80
6930;DHT22;3504;52.616;13.238;2023-07-09T01:59:18;17.20;64.61
6930;DHT22;3504;52.616;13.238;2023-07-09T02:04:21;17.15;65.26
6930;DHT22;3504;52.616;13.238;2023-07-09T02:09:22;17.14;65.11
6930;DHT22;3504;52.616;13.238;2023-07-09T02:14:23;17.11;66.12
6930;DHT22;3504;52.616;13.238;2023-07-09T02:19:23;16.94;66.84
6930;DHT22;3504;52.616;13.238;2023-07-09T02:24:24;16.86;66.27
6930;DHT22;3504;52.616;13.238;2023-07-09T02:29:27;16.86;65.99
6930;DHT22;3504;52.616;13.238;2023-07-09T02:34:29;16.87;66.10
6930;DHT22;3504;52.616;13.238;2023-07-09T02:39:30;16.80;66.57
6930;DHT22;3504;52.616;13.238;2023-07-09T02:44:31;16.76;66.01
6930;DHT22;3504;52.616;13.238;2023-07-09T02:49:32;16.69;66.86
6930;DHT22;3504;52.616;13.238;2023-07-09T02:54:33;16.66;66.62
6930;DHT22;3504;52.616;13.238;2023-07-09T02:59:34;16.62;65.90
6930;DHT22;3504;52.616;13.238;2023-07-09T03:04:34;16.62;65.95
6930;DHT22;3504;52.616;13.238;2023-07-09T03:09:35;16.60;66.08
6930;DHT22;3504;52.616;13.238;2023-07-09T03:14:36;16.57;67.31
6930;DHT22;3504;52.616;13.238;2023-07-09T03:19:36;16.48;67.71
6930;DHT22;3504;52.616;13.238;2023-07-09T03:24:37;16.42;67.54
6930;DHT22;3504;52.616;13.238;2023-07-09T03:29:37;16.45;66.88
6930;DHT22;3504;52.616;13.238;2023-07-09T03:34:38;16.43;66.70
6930;DHT22;3504;52.616;13.238;2023-07-09T03:39:38;16.48;67.05
6930;DHT22;3504;52.616;13.238;2023-07-09T03:44:39;16.45;67.83
6930;DHT22;3504;52.616;13.238;2023-07-09T03:49:40;16.45;67.56
6930;DHT22;3504;52.616;13.238;2023-07-09T03:54:42;16.46;67.58
6930;DHT22;3504;52.616;13.238;2023-07-09T03:59:42;16.45;68.84
6930;DHT22;3504;52.616;13.238;2023-07-09T04:04:43;16.43;69.01
6930;DHT22;3504;52.616;13.238;2023-07-09T04:09:43;16.51;68.35
6930;DHT22;3504;52.616;13.238;2023-07-09T04:14:44;16.51;70.40
6930;DHT22;3504;52.616;13.238;2023-07-09T04:19:44;16.53;69.91
6930;DHT22;3504;52.616;13.238;2023-07-09T04:24:45;16.59;69.95
6930;DHT22;3504;52.616;13.238;2023-07-09T04:29:46;16.66;69.07
6930;DHT22;3504;52.616;13.238;2023-07-09T04:34:47;16.77;68.74
6930;DHT22;3504;52.616;13.238;2023-07-09T04:39:47;16.87;68.92
6930;DHT22;3504;52.616;13.238;2023-07-09T04:44:48;16.96;69.31
6930;DHT22;3504;52.616;13.238;2023-07-09T04:49:48;17.04;68.87
6930;DHT22;3504;52.616;13.238;2023-07-09T04:54:49;17.18;69.18
6930;DHT22;3504;52.616;13.238;2023-07-09T04:59:50;17.28;68.14
6930;DHT22;3504;52.616;13.238;2023-07-09T05:04:51;17.44;68.31
6930;DHT22;3504;52.616;13.238;2023-07-09T05:09:51;17.64;68.39
6930;DHT22;3504;52.616;13.238;2023-07-09T05:14:55;17.83;67.71
6930;DHT22;3504;52.616;13.238;2023-07-09T05:19:56;18.05;66.50
6930;DHT22;3504;52.616;13.238;2023-07-09T05:24:57;18.26;65.34
6930;DHT22;3504;52.616;13.238;2023-07-09T05:29:57;18.47;64.86
6930;DHT22;3504;52.616;13.238;2023-07-09T05:34:58;18.67;66.04
6930;DHT22;3504;52.616;13.238;2023-07-09T05:39:59;18.85;63.68
6930;DHT22;3504;52.616;13.238;2023-07-09T05:44:59;19.12;63.91
6930;DHT22;3504;52.616;13.238;2023-07-09T05:50:00;19.49;63.43
6930;DHT22;3504;52.616;13.238;2023-07-09T05:55:00;19.91;62.17
6930;DHT22;3504;52.616;13.238;2023-07-09T06:00:01;20.52;61.44
6930;DHT22;3504;52.616;13.238;2023-07-09T06:05:01;21.24;60.59
6930;DHT22;3504;52.616;13.238;2023-07-09T06:10:02;22.02;59.66
6930;DHT22;3504;52.616;13.238;2023-07-09T06:15:03;22.64;54.79
6930;DHT22;3504;52.616;13.238;2023-07-09T06:20:04;23.21;55.16
6930;DHT22;3504;52.616;13.238;2023-07-09T06:25:05;23.70;51.55
6930;DHT22;3504;52.616;13.238;2023-07-09T06:30:06;24.18;51.27
6930;DHT22;3504;52.616;13.238;2023-07-09T06:35:08;24.44;49.97
6930;DHT22;3504;52.616;13.238;2023-07-09T06:40:08;24.82;49.47
6930;DHT22;3504;52.616;13.238;2023-07-09T06:45:09;25.26;49.83
6930;DHT22;3504;52.616;13.238;2023-07-09T06:50:12;25.60;47.30
6930;DHT22;3504;52.616;13.238;2023-07-09T06:55:12;25.87;48.05
6930;DHT22;3504;52.616;13.238;2023-07-09T07:00:14;26.04;47.28
6930;DHT22;3504;52.616;13.238;2023-07-09T07:05:14;26.02;48.26
6930;DHT22;3504;52.616;13.238;2023-07-09T07:10:15;26.29;47.24
6930;DHT22;3504;52.616;13.238;2023-07-09T07:15:17;26.49;45.82
6930;DHT22;3504;52.616;13.238;2023-07-09T07:20:18;26.55;46.37
6930;DHT22;3504;52.616;13.238;2023-07-09T07:25:19;26.76;45.84
6930;DHT22;3504;52.616;13.238;2023-07-09T07:30:20;27.04;47.12
6930;DHT22;3504;52.616;13.238;2023-07-09T07:35:20;27.20;45.57
6930;DHT22;3504;52.616;13.238;2023-07-09T07:40:21;27.28;44.65
6930;DHT22;3504;52.616;13.238;2023-07-09T07:45:21;27.28;45.99
6930;DHT22;3504;52.616;13.238;2023-07-09T07:50:22;27.33;45.73
6930;DHT22;3504;52.616;13.238;2023-07-09T07:55:22;27.41;44.62
6930;DHT22;3504;52.616;13.238;2023-07-09T08:00:23;27.67;45.16
6930;DHT22;3504;52.616;13.238;2023-07-09T08:05:23;28.02;43.55
6930;DHT22;3504;52.616;13.238;2023-07-09T08:10:25;28.20;44.64
6930;DHT22;3504;52.616;13.238;2023-07-09T08:15:27;28.29;45.21
6930;DHT22;3504;52.616;13.238;2023-07-09T08:20:27;28.49;42.03
6930;DHT22;3504;52.616;13.238;2023-07-09T08:25:28;28.44;41.96
6930;DHT22;3504;52.616;13.238;2023-07-09T08:30:28;28.73;43.00
6930;DHT22;3504;52.616;13.238;2023-07-09T08:35:29;29.01;42.81
6930;DHT22;3504;52.616;13.238;2023-07-09T08:40:30;29.19;42.34
6930;DHT22;3504;52.616;13.238;2023-07-09T08:45:56;29.29;41.45
6930;DHT22;3504;52.616;13.238;2023-07-09T08:51:12;29.60;41.01
6930;DHT22;3504;52.616;13.238;2023-07-09T08:56:15;30.02;40.72
6930;DHT22;3504;52.616;13.238;2023-07-09T09:01:23;30.33;41.44
6930;DHT22;3504;52.616;13.238;2023-07-09T09:06:30;30.50;39.33
6930;DHT22;3504;52.616;13.238;2023-07-09T09:17:15;31.05;37.52
6930;DHT22;3504;52.616;13.238;2023-07-09T09:22:23;31.16;37.97
6930;DHT22;3504;52.616;13.238;2023-07-09T09:27:24;31.37;36.89
6930;DHT22;3504;52.616;13.238;2023-07-09T09:32:28;31.49;35.28
6930;DHT22;3504;52.616;13.238;2023-07-09T09:37:32;31.59;35.76
6930;DHT22;3504;52.616;13.238;2023-07-09T09:42:32;31.87;36.30
6930;DHT22;3504;52.616;13.238;2023-07-09T09:47:33;31.77;33.20
6930;DHT22;3504;52.616;13.238;2023-07-09T09:52:36;31.80;35.07
6930;DHT22;3504;52.616;13.238;2023-07-09T09:57:37;31.93;34.38
6930;DHT22;3504;52.616;13.238;2023-07-09T10:02:39;32.03;31.20
6930;DHT22;3504;52.616;13.238;2023-07-09T10:07:53;31.97;31.16
6930;DHT22;3504;52.616;13.238;2023-07-09T10:13:17;32.38;33.59
6930;DHT22;3504;52.616;13.238;2023-07-09T10:19:04;32.66;31.10
6930;DHT22;3504;52.616;13.238;2023-07-09T10:25:14;32.85;29.52
6930;DHT22;3504;52.616;13.238;2023-07-09T10:35:46;33.10;30.83
6930;DHT22;3504;52.616;13.238;2023-07-09T10:40:56;32.96;29.80
6930;DHT22;3504;52.616;13.238;2023-07-09T10:46:09;33.02;31.10
6930;DHT22;3504;52.616;13.238;2023-07-09T10:51:37;33.13;31.15
6930;DHT22;3504;52.616;13.238;2023-07-09T10:56:39;33.25;28.99
6930;DHT22;3504;52.616;13.238;2023-07-09T11:01:43;33.36;29.52
6930;DHT22;3504;52.616;13.238;2023-07-09T11:06:48;33.66;31.09
6930;DHT22;3504;52.616;13.238;2023-07-09T11:11:54;33.82;31.04
6930;DHT22;3504;52.616;13.238;2023-07-09T11:16:56;33.81;29.28
6930;DHT22;3504;52.616;13.238;2023-07-09T11:27:26;33.64;30.61
6930;DHT22;3504;52.616;13.238;2023-07-09T11:32:28;33.67;29.60
6930;DHT22;3504;52.616;13.238;2023-07-09T11:37:29;33.70;28.68
6930;DHT22;3504;52.616;13.238;2023-07-09T11:42:34;33.87;31.45
6930;DHT22;3504;52.616;13.238;2023-07-09T11:47:53;33.68;28.73
6930;DHT22;3504;52.616;13.238;2023-07-09T11:52:59;33.51;28.29
6930;DHT22;3504;52.616;13.238;2023-07-09T11:58:03;33.33;29.04
6930;DHT22;3504;52.616;13.238;2023-07-09T12:03:06;33.58;30.06
6930;DHT22;3504;52.616;13.238;2023-07-09T12:08:07;33.46;28.67
6930;DHT22;3504;52.616;13.238;2023-07-09T12:13:15;33.13;28.06
6930;DHT22;3504;52.616;13.238;2023-07-09T12:18:16;33.42;29.97
6930;DHT22;3504;52.616;13.238;2023-07-09T12:23:24;33.40;29.72
6930;DHT22;3504;52.616;13.238;2023-07-09T12:28:27;33.44;28.52
6930;DHT22;3504;52.616;13.238;2023-07-09T12:33:28;33.51;30.06
6930;DHT22;3504;52.616;13.238;2023-07-09T12:38:33;33.63;29.15
6930;DHT22;3504;52.616;13.238;2023-07-09T12:43:40;33.54;28.19
6930;DHT22;3504;52.616;13.238;2023-07-09T12:48:41;33.57;29.34
6930;DHT22;3504;52.616;13.238;2023-07-09T12:53:41;33.37;28.99
6930;DHT22;3504;52.616;13.238;2023-07-09T12:58:41;33.60;29.93
6930;DHT22;3504;52.616;13.238;2023-07-09T13:03:56;33.68;29.79
6930;DHT22;3504;52.616;13.238;2023-07-09T13:08:59;33.70;28.09
6930;DHT22;3504;52.616;13.238;2023-07-09T13:14:05;33.50;28.41
6930;DHT22;3504;52.616;13.238;2023-07-09T13:19:06;33.40;28.14
6930;DHT22;3504;52.616;13.238;2023-07-09T13:24:30;33.37;27.48
6930;DHT22;3504;52.616;13.238;2023-07-09T13:29:31;33.27;28.42
6930;DHT22;3504;52.616;13.238;2023-07-09T13:34:33;33.20;28.89
6930;DHT22;3504;52.616;13.238;2023-07-09T13:39:34;33.37;30.07
6930;DHT22;3504;52.616;13.238;2023-07-09T13:44:34;33.40;28.35
6930;DHT22;3504;52.616;13.238;2023-07-09T13:49:35;33.31;28.19
6930;DHT22;3504;52.616;13.238;2023-07-09T13:54:36;33.39;29.57
6930;DHT22;3504;52.616;13.238;2023-07-09T13:59:37;33.31;28.01
6930;DHT22;3504;52.616;13.238;2023-07-09T14:04:38;33.19;27.97
6930;DHT22;3504;52.616;13.238;2023-07-09T14:09:39;33.19;28.62
6930;DHT22;3504;52.616;13.238;2023-07-09T14:14:39;33.13;28.45
6930;DHT22;3504;52.616;13.238;2023-07-09T14:19:40;33.22;29.26
6930;DHT22;3504;52.616;13.238;2023-07-09T14:24:43;33.29;29.56
6930;DHT22;3504;52.616;13.238;2023-07-09T14:29:43;33.33;29.79
6930;DHT22;3504;52.616;13.238;2023-07-09T14:34:44;33.27;28.33
6930;DHT22;3504;52.616;13.238;2023-07-09T14:39:44;33.33;26.61
6930;DHT22;3504;52.616;13.238;2023-07-09T14:44:45;33.23;29.67
6930;DHT22;3504;52.616;13.238;2023-07-09T14:49:46;33.26;28.74
6930;DHT22;3504;52.616;13.238;2023-07-09T14:54:48;33.25;30.45
6930;DHT22;3504;52.616;13.238;2023-07-09T14:59:50;33.29;27.91
6930;DHT22;3504;52.616;13.238;2023-07-09T15:04:50;33.33;28.73
6930;DHT22;3504;52.616;13.238;2023-07-09T15:09:51;33.22;28.26
6930;DHT22;3504;52.616;13.238;2023-07-09T15:14:51;33.10;28.41
6930;DHT22;3504;52.616;13.238;2023-07-09T15:19:52;32.87;29.56
6930;DHT22;3504;52.616;13.238;2023-07-09T15:24:52;32.85;29.56
6930;DHT22;3504;52.616;13.238;2023-07-09T15:29:53;32.89;29.36
6930;DHT22;3504;52.616;13.238;2023-07-09T15:34:54;32.87;29.24
6930;DHT22;3504;52.616;13.238;2023-07-09T15:39:55;32.82;29.78
6930;DHT22;3504;52.616;13.238;2023-07-09T15:44:56;32.75;28.50
6930;DHT22;3504;52.616;13.238;2023-07-09T15:49:59;32.66;31.17
6930;DHT22;3504;52.616;13.238;2023-07-09T15:55:00;32.59;29.54
6930;DHT22;3504;52.616;13.238;2023-07-09T16:00:01;32.48;30.79
6930;DHT22;3504;52.616;13.238;2023-07-09T16:05:04;32.52;29.97
6930;DHT22;3504;52.616;13.238;2023-07-09T16:10:08;32.45;29.41
6930;DHT22;3504;52.616;13.238;2023-07-09T16:15:10;32.38;29.95
6930;DHT22;3504;52.616;13.238;2023-07-09T16:20:14;32.23;31.14
6930;DHT22;3504;52.616;13.238;2023-07-09T16:25:18;32.11;30.67
6930;DHT22;3504;52.616;13.238;2023-07-09T16:30:25;31.81;31.61
6930;DHT22;3504;52.616;13.238;2023-07-09T16:35:28;31.63;32.53
6930;DHT22;3504;52.616;13.238;2023-07-09T16:40:31;31.63;31.86
6930;DHT22;3504;52.616;13.238;2023-07-09T16:45:32;31.62;33.48
6930;DHT22;3504;52.616;13.238;2023-07-09T16:50:32;31.53;33.66
6930;DHT22;3504;52.616;13.238;2023-07-09T16:55:33;31.40;33.07
6930;DHT22;3504;52.616;13.238;2023-07-09T17:00:36;31.30;33.16
6930;DHT22;3504;52.616;13.238;2023-07-09T17:05:37;31.22;34.03
6930;DHT22;3504;52.616;13.238;2023-07-09T17:10:42;31.12;34.28
6930;DHT22;3504;52.616;13.238;2023-07-09T17:15:43;30.98;35.51
6930;DHT22;3504;52.616;13.238;2023-07-09T17:20:44;30.81;35.18
6930;DHT22;3504;52.616;13.238;2023-07-09T17:25:45;30.58;36.40
6930;DHT22;3504;52.616;13.238;2023-07-09T17:30:47;30.38;36.26
6930;DHT22;3504;52.616;13.238;2023-07-09T17:35:49;30.20;36.92
6930;DHT22;3504;52.616;13.238;2023-07-09T17:40:52;29.90;36.80
6930;DHT22;3504;52.616;13.238;2023-07-09T17:45:53;29.82;36.45
6930;DHT22;3504;52.616;13.238;2023-07-09T17:50:54;29.70;37.39
6930;DHT22;3504;52.616;13.238;2023-07-09T17:55:55;29.63;37.24
6930;DHT22;3504;52.616;13.238;2023-07-09T18:01:00;29.48;38.06
6930;DHT22;3504;52.616;13.238;2023-07-09T18:06:01;29.35;37.70
6930;DHT22;3504;52.616;13.238;2023-07-09T18:11:02;29.16;38.85
6930;DHT22;3504;52.616;13.238;2023-07-09T18:16:02;29.01;39.70
6930;DHT22;3504;52.616;13.238;2023-07-09T18:21:03;28.87;39.46
6930;DHT22;3504;52.616;13.238;2023-07-09T18:26:03;28.70;40.20
6930;DHT22;3504;52.616;13.238;2023-07-09T18:31:09;28.53;40.28
6930;DHT22;3504;52.616;13.238;2023-07-09T18:36:10;28.35;40.32
6930;DHT22;3504;52.616;13.238;2023-07-09T18:41:14;28.19;41.66
6930;DHT22;3504;52.616;13.238;2023-07-09T18:46:15;27.98;41.36
6930;DHT22;3504;52.616;13.238;2023-07-09T18:51:16;27.79;40.93
6930;DHT22;3504;52.616;13.238;2023-07-09T18:56:16;27.61;41.00
6930;DHT22;3504;52.616;13.238;2023-07-09T19:01:20;27.48;41.42
6930;DHT22;3504;52.616;13.238;2023-07-09T19:06:21;27.35;41.59
6930;DHT22;3504;52.616;13.238;2023-07-09T19:11:22;27.21;41.82
6930;DHT22;3504;52.616;13.238;2023-07-09T19:16:25;27.06;43.03
6930;DHT22;3504;52.616;13.238;2023-07-09T19:21:29;26.89;43.67
6930;DHT22;3504;52.616;13.238;2023-07-09T19:26:30;26.70;43.85
6930;DHT22;3504;52.616;13.238;2023-07-09T19:31:31;26.56;43.34
6930;DHT22;3504;52.616;13.238;2023-07-09T19:36:31;26.38;44.65
6930;DHT22;3504;52.616;13.238;2023-07-09T19:41:32;26.24;43.99
6930;DHT22;3504;52.616;13.238;2023-07-09T19:46:32;26.09;43.78
6930;DHT22;3504;52.616;13.238;2023-07-09T19:51:33;25.97;44.29
6930;DHT22;3504;52.616;13.238;2023-07-09T19:56:33;25.88;43.87
6930;DHT22;3504;52.616;13.238;2023-07-09T20:01:34;25.81;43.66
6930;DHT22;3504;52.616;13.238;2023-07-09T20:06:34;25.73;43.57
6930;DHT22;3504;52.616;13.238;2023-07-09T20:11:35;25.64;43.88
6930;DHT22;3504;52.616;13.238;2023-07-09T20:16:35;25.59;43.49
6930;DHT22;3504;52.616;13.238;2023-07-09T20:21:36;25.49;43.45
6930;DHT22;3504;52.616;13.238;2023-07-09T20:26:38;25.43;43.75
6930;DHT22;3504;52.616;13.238;2023-07-09T20:31:39;25.34;43.40
6930;DHT22;3504;52.616;13.238;2023-07-09T20:36:40;25.26;43.17
6930;DHT22;3504;52.616;13.238;2023-07-09T20:41:42;25.20;43.44
6930;DHT22;3504;52.616;13.238;2023-07-09T20:46:46;25.15;43.46
6930;DHT22;3504;52.616;13.238;2023-07-09T20:51:46;25.01;45.67
6930;DHT22;3504;52.616;13.238;2023-07-09T20:56:47;24.88;44.43
6930;DHT22;3504;52.616;13.238;2023-07-09T21:01:48;24.75;44.55
6930;DHT22;3504;52.616;13.238;2023-07-09T21:06:51;24.62;44.21
6930;DHT22;3504;52.616;13.238;2023-07-09T21:11:52;24.55;44.62
6930;DHT22;3504;52.616;13.238;2023-07-09T21:16:55;24.50;44.15
6930;DHT22;3504;52.616;13.238;2023-07-09T21:21:57;24.45;45.03
6930;DHT22;3504;52.616;13.238;2023-07-09T21:27:00;24.36;45.11
6930;DHT22;3504;52.616;13.238;2023-07-09T21:32:06;24.24;45.33
6930;DHT22;3504;52.616;13.238;2023-07-09T21:37:16;24.17;44.92
6930;DHT22;3504;52.616;13.238;2023-07-09T21:42:17;24.09;45.65
6930;DHT22;3504;52.616;13.238;2023-07-09T21:47:18;24.06;44.39
6930;DHT22;3504;52.616;13.238;2023-07-09T21:52:21;24.01;45.63
6930;DHT22;3504;52.616;13.238;2023-07-09T21:57:22;23.99;44.16
6930;DHT22;3504;52.616;13.238;2023-07-09T22:02:26;23.93;44.72
6930;DHT22;3504;52.616;13.238;2023-07-09T22:07:28;23.89;44.97
6930;DHT22;3504;52.616;13.238;2023-07-09T22:12:31;23.85;45.10
6930;DHT22;3504;52.616;13.238;2023-07-09T22:17:31;23.79;45.03
6930;DHT22;3504;52.616;13.238;2023-07-09T22:22:33;23.72;44.89
6930;DHT22;3504;52.616;13.238;2023-07-09T22:27:34;23.67;46.56
6930;DHT22;3504;52.616;13.238;2023-07-09T22:32:34;23.60;46.27
6930;DHT22;3504;52.616;13.238;2023-07-09T22:37:36;23.53;47.46
6930;DHT22;3504;52.616;13.238;2023-07-09T22:42:37;23.43;47.44
6930;DHT22;3504;52.616;13.238;2023-07-09T22:47:38;23.34;47.43
6930;DHT22;3504;52.616;13.238;2023-07-09T22:52:40;23.28;47.93
6930;DHT22;3504;52.616;13.238;2023-07-09T22:57:44;23.21;49.00
6930;DHT22;3504;52.616;13.238;2023-07-09T23:02:44;23.12;48.70
6930;DHT22;3504;52.616;13.238;2023-07-09T23:07:45;23.05;50.16
6930;DHT22;3504;52.616;13.238;2023-07-09T23:12:46;22.94;50.12
6930;DHT22;3504;52.616;13.238;2023-07-09T23:17:46;22.81;50.56
6930;DHT22;3504;52.616;13.238;2023-07-09T23:22:51;22.76;50.00
6930;DHT22;3504;52.616;13.238;2023-07-09T23:27:55;22.74;50.64
6930;DHT22;3504;52.616;13.238;2023-07-09T23:32:56;22.67;52.48
6930;DHT22;3504;52.616;13.238;2023-07-09T23:38:02;22.63;51.95
6930;DHT22;3504;52.616;13.238;2023-07-09T23:43:03;22.59;51.69
6930;DHT22;3504;52.616;13.238;2023-07-09T23:48:06;22.49;51.96
6930;DHT22;3504;52.616;13.238;2023-07-09T23:53:26;22.40;51.45
6930;DHT22;3504;52.616;13.238;2023-07-09T23:58:36;22.39;52.70
